• Join FlightAware (Why Join?)
  • Login
  • US Flag 
10:57AM EDT


 

Airport Tracker/Info


-or-


 

Live Flight TrackerFlight Track Log ✈ SWA3694 ✈ 05-Apr-2014 ✈ KLAS - KSJC

Flight Track Log - Related Links

Times and Time Zones

All times are in EDT time to prevent confusion due to time zone crossing. See the SWA3694 flight status page for this flight to view local times or setup timezone preferences in your user account.

Time Position Orientation Groundspeed Altitude Reporting Facility
EDT Latitude Longitude Course Direction KTS MPH feet Rate Location/Type
05:09PM 36.1228 -115.1847 296° West 206 237 4,500  Level Los Angeles Center
05:10PM 36.1086 -115.2547 256° West 218 251 7,400 2,820 Climbing Los Angeles Center
05:11PM 36.0608 -115.3128 224° Southwest 272 313 10,200 2,520 Climbing Los Angeles Center
05:12PM 35.9717 -115.3614 204° Southwest 337 388 12,700 2,760 Climbing Los Angeles Center
05:13PM 35.9331 -115.4697 246° West 366 421 16,000 3,240 Climbing Los Angeles Center
05:14PM 35.9300 -115.6097 268° West 380 437 19,500 3,000 Climbing Los Angeles Center
05:15PM 35.9164 -115.7453 263° West 401 461 22,200 2,520 Climbing Los Angeles Center
05:16PM 35.9039 -115.8872 264° West 412 474 24,800 2,340 Climbing Los Angeles Center
05:17PM 35.9150 -116.0175 276° West 410 472 27,100 2,400 Climbing Los Angeles Center
05:18PM 35.9567 -116.1478 292° West 415 478 29,800 2,280 Climbing Los Angeles Center
05:19PM 36.0061 -116.3008 292° West 407 468 31,900 1,860 Climbing Los Angeles Center
05:20PM 36.0478 -116.4333 291° West 408 470 33,700 1,740 Climbing Los Angeles Center
05:21PM 36.0889 -116.5633 291° West 409 471 35,500 1,440 Climbing Los Angeles Center
05:22PM 36.1306 -116.6939 292° West 409 471 36,700 1,260 Climbing Los Angeles Center
05:23PM 36.1714 -116.8233 291° West 409 471 38,200 1,500 Climbing Los Angeles Center
05:24PM 36.2197 -116.9781 291° West 406 467 39,800 840 Climbing Los Angeles Center
05:25PM 36.2589 -117.1058 291° West 403 464 40,000 60 Climbing Los Angeles Center
05:26PM 36.2978 -117.2311 291° West 397 457 40,000  Level Los Angeles Center
05:27PM 36.3378 -117.3608 291° West 400 460 40,000  Level Los Angeles Center
05:28PM 36.3767 -117.4889 291° West 400 460 40,000  Level Los Angeles Center
05:29PM 36.4150 -117.6156 291° West 399 459 40,000  Level Los Angeles Center
05:30PM 36.4614 -117.7658 291° West 397 457 40,000  Level Los Angeles Center
05:31PM 36.5003 -117.8925 291° West 394 453 40,000  Level Los Angeles Center
05:32PM 36.5383 -118.0211 290° West 395 455 40,000  Level Los Angeles Center
05:33PM 36.5758 -118.1464 290° West 394 453 40,000  Level Los Angeles Center
05:34PM 36.6133 -118.2722 290° West 392 451 40,000  Level Los Angeles Center
05:35PM 36.6583 -118.4244 290° West 391 450 40,000  Level Los Angeles Center
05:36PM 36.6947 -118.5475 290° West 387 445 40,000 -60 Level Los Angeles Center
05:37PM 36.7306 -118.6719 290° West 386 444 39,900 -360 Descending Los Angeles Center
05:38PM 36.7675 -118.7944 291° West 386 444 39,300 -660 Descending Los Angeles Center
05:40PM 36.8056 -118.9342 289° West 395 455 38,600 -660 Descending Los Angeles Center
05:41PM 36.8433 -119.0639 290° West 396 456 38,000 -780 Descending Los Angeles Center
05:42PM 36.8792 -119.1861 290° West 382 440 37,000 -1,380 Descending Los Angeles Center
05:43PM 36.9272 -119.3578 289° West 381 438 34,700 -1,980 Descending Oakland Center
05:44PM 36.9686 -119.5039 290° West 374 430 32,300 -2,100 Descending Oakland Center
05:45PM 37.0014 -119.6169 290° West 352 405 30,400 -1,800 Descending Oakland Center
05:46PM 37.0319 -119.7256 289° West 338 389 28,700 -1,680 Descending Oakland Center
05:47PM 37.0606 -119.8292 289° West 322 371 27,000 -1,740 Descending Oakland Center
05:48PM 37.0925 -119.9411 290° West 320 368 25,200 -1,740 Descending Oakland Center
05:49PM 37.1206 -120.0467 288° West 320 368 23,500 -1,800 Descending Oakland Center
05:50PM 37.1239 -120.1681 272° West 354 407 21,600 -1,380 Descending Oakland Center
05:51PM 37.1156 -120.3108 266° West 400 460 20,700 -900 Descending Oakland Center
05:52PM 37.1092 -120.4519 267° West 404 465 19,800 -960 Descending Oakland Center
05:53PM 37.1017 -120.5878 266° West 397 457 18,800 -1,020 Descending Oakland Center
05:54PM 37.0953 -120.7222 267° West 388 447 17,800 -900 Descending Oakland Center
05:55PM 37.0875 -120.8583 266° West 392 451 17,000 -1,800 Descending Oakland Center
05:56PM 37.0833 -121.0000 268° West 378 435 14,300 -2,760 Descending Northern Cal TRACON
05:57PM 37.0667 -121.1333 261° West 365 420 11,700 -2,100 Descending Northern Cal TRACON
05:58PM 37.0822 -121.2689 278° West 349 402 9,900 -1,080 Descending Oakland Center
05:59PM 37.1000 -121.3619 283° West 294 338 9,400 -840 Descending Oakland Center
06:00PM 37.1158 -121.4536 282° West 274 315 8,200 -1,560 Descending Oakland Center
06:01PM 37.1331 -121.5417 284° West 262 302 6,300 -1,560 Descending Oakland Center
06:02PM 37.1503 -121.6369 283° West 270 311 5,100 -660 Descending Oakland Center
06:03PM 37.1653 -121.7206 283° West 262 302 5,000 -600 Descending Oakland Center
06:04PM 37.2033 -121.7592 321° Northwest 206 237 3,900 -1,020 Descending Oakland Center
06:05PM 37.2428 -121.8003 320° Northwest 191 220 3,000 -900 Descending Oakland Center
06:06PM 37.2764 -121.8383 318° Northwest 177 204 2,100 -840 Descending Oakland Center
06:07PM 37.3067 -121.8722 318° Northwest 161 185 1,400 -780 Descending Oakland Center
06:09PM 37.3342 -121.9017 320° Northwest 144 166 600 9,060 Descending Oakland Center
06:10PM 37.3667 -121.9369 319° Northwest 134 154 20,000 18,720 Climbing Oakland Center